Time;durP1;ratioP1;P1;durP2;ratioP2;P2;SDS_P1;SDS_P2;PMS_P1;PMS_P2;Temp;Humidity;BMP_temperature;BMP_pressure;BME280_temperature;BME280_humidity;BME280_pressure;Samples;Min_cycle;Max_cycle;Signal;HPM_P1;HPM_P2
2021/12/27 00:02:17;;;;;;;7.13;3.13;;;4.20;91.60;;;;;;5043963;28;20197;-80
2021/12/27 00:04:47;;;;;;;5.47;2.70;;;4.20;91.50;;;;;;5050176;28;20237;-80
2021/12/27 00:07:16;;;;;;;5.37;2.90;;;4.30;91.50;;;;;;5058855;28;20208;-80
2021/12/27 00:09:45;;;;;;;6.20;2.80;;;4.20;91.60;;;;;;5062818;28;20703;-81
2021/12/27 00:12:13;;;;;;;4.57;2.80;;;4.20;91.50;;;;;;5065482;28;20196;-81
2021/12/27 00:14:41;;;;;;;5.73;3.07;;;4.20;91.40;;;;;;5065404;28;20189;-80
2021/12/27 00:17:10;;;;;;;5.60;3.30;;;4.20;91.40;;;;;;5059599;28;20194;-79
2021/12/27 00:19:38;;;;;;;4.73;2.70;;;4.20;91.30;;;;;;5055024;28;20194;-78
2021/12/27 00:22:08;;;;;;;5.63;2.70;;;4.20;91.30;;;;;;5055817;28;20286;-80
2021/12/27 00:24:37;;;;;;;5.87;2.50;;;4.20;91.40;;;;;;5047394;28;20274;-80
2021/12/27 00:27:06;;;;;;;4.53;2.50;;;4.20;91.40;;;;;;5047752;28;20732;-80
2021/12/27 00:29:34;;;;;;;4.17;2.60;;;4.20;91.40;;;;;;5059917;28;20661;-80
2021/12/27 00:32:03;;;;;;;4.60;2.27;;;4.20;91.40;;;;;;5061907;28;20202;-80
2021/12/27 00:34:32;;;;;;;4.90;2.50;;;4.20;91.40;;;;;;5060456;28;20225;-80
2021/12/27 00:37:00;;;;;;;4.90;2.63;;;4.20;91.40;;;;;;5065033;28;20206;-80
2021/12/27 00:39:30;;;;;;;3.10;2.07;;;4.20;91.30;;;;;;5059254;28;20193;-79
2021/12/27 00:41:58;;;;;;;4.87;2.73;;;4.30;91.30;;;;;;5066627;28;20252;-79
2021/12/27 00:44:26;;;;;;;4.50;2.53;;;4.20;91.20;;;;;;5066074;28;20222;-78
2021/12/27 00:46:55;;;;;;;6.80;2.37;;;4.30;91.20;;;;;;5062826;28;20205;-79
2021/12/27 00:49:24;;;;;;;4.23;2.13;;;4.30;91.20;;;;;;5056000;28;20215;-80
2021/12/27 00:51:52;;;;;;;4.40;2.40;;;4.20;91.20;;;;;;5045714;28;20195;-78
2021/12/27 00:54:21;;;;;;;3.07;1.90;;;4.20;91.20;;;;;;5060591;28;20194;-80
2021/12/27 00:56:51;;;;;;;4.77;2.57;;;4.20;91.10;;;;;;5054679;28;20194;-79
2021/12/27 00:59:19;;;;;;;4.50;2.60;;;4.30;91.10;;;;;;5060025;28;20198;-80
2021/12/27 01:01:49;;;;;;;4.27;2.37;;;4.20;91.10;;;;;;5049763;28;20194;-79
2021/12/27 01:04:18;;;;;;;4.57;2.43;;;4.20;91.10;;;;;;5056579;28;20241;-79
2021/12/27 01:06:46;;;;;;;4.40;2.33;;;4.20;91.10;;;;;;5058963;28;20702;-80
2021/12/27 01:09:26;;;;;;;3.73;2.27;;;4.20;91.00;;;;;;5052631;28;20209;-78
2021/12/27 01:12:11;;;;;;;4.27;2.63;;;4.20;91.20;;;;;;5044797;28;20194;-79
2021/12/27 01:14:43;;;;;;;4.57;2.80;;;4.20;91.10;;;;;;5058983;28;20200;-79
2021/12/27 01:17:12;;;;;;;4.40;2.63;;;4.30;91.20;;;;;;5061349;28;20227;-80
2021/12/27 01:19:40;;;;;;;4.57;2.53;;;4.20;91.10;;;;;;5059374;28;20197;-79
2021/12/27 01:22:09;;;;;;;3.90;2.17;;;4.30;91.10;;;;;;5045557;28;20206;-79
2021/12/27 01:24:37;;;;;;;3.77;2.33;;;4.20;91.00;;;;;;5055133;28;20233;-79
2021/12/27 01:27:07;;;;;;;4.80;2.17;;;4.20;91.10;;;;;;5054746;28;20579;-78
2021/12/27 01:29:35;;;;;;;4.30;2.33;;;4.20;91.20;;;;;;5063235;28;20584;-80
2021/12/27 01:32:04;;;;;;;3.53;2.37;;;4.20;91.20;;;;;;5054355;28;20202;-79
2021/12/27 01:34:33;;;;;;;5.70;2.73;;;4.30;91.20;;;;;;5059900;28;20230;-78
2021/12/27 01:37:01;;;;;;;3.13;2.00;;;4.20;91.20;;;;;;5055047;28;20194;-79
2021/12/27 01:39:29;;;;;;;4.30;2.10;;;4.20;91.20;;;;;;5057857;28;20213;-79
2021/12/27 01:41:58;;;;;;;3.60;2.23;;;4.20;91.20;;;;;;5058659;28;20198;-81
2021/12/27 01:44:28;;;;;;;3.07;1.90;;;4.20;91.20;;;;;;5062798;28;20210;-79
2021/12/27 01:46:56;;;;;;;2.87;1.97;;;4.20;91.20;;;;;;5046997;28;20205;-80
2021/12/27 01:49:24;;;;;;;4.13;2.10;;;4.20;91.20;;;;;;5058292;28;20584;-80
2021/12/27 01:51:53;;;;;;;3.83;2.17;;;4.20;91.20;;;;;;5059809;28;20198;-79
2021/12/27 01:54:21;;;;;;;3.90;2.50;;;4.10;91.50;;;;;;5050560;28;20352;-79
2021/12/27 01:56:51;;;;;;;5.43;2.50;;;4.10;91.40;;;;;;5063032;28;21617;-79
2021/12/27 01:59:22;;;;;;;3.43;2.00;;;4.10;91.40;;;;;;5057408;28;20190;-79
2021/12/27 02:01:52;;;;;;;3.30;2.00;;;4.00;91.40;;;;;;5061911;28;20648;-80
2021/12/27 02:04:21;;;;;;;3.33;1.73;;;4.00;91.40;;;;;;5056131;28;20937;-77
2021/12/27 02:06:50;;;;;;;3.17;2.00;;;4.00;91.40;;;;;;5062961;28;20205;-77
2021/12/27 02:09:21;;;;;;;5.37;1.90;;;4.00;91.40;;;;;;5059160;28;20201;-78
2021/12/27 02:11:50;;;;;;;4.67;2.40;;;4.00;91.50;;;;;;5058991;28;20193;-77
2021/12/27 02:14:19;;;;;;;3.53;2.03;;;4.00;91.50;;;;;;5054956;28;20837;-77
2021/12/27 02:16:47;;;;;;;4.03;2.33;;;4.00;91.50;;;;;;5043810;28;20190;-77
2021/12/27 02:19:17;;;;;;;5.67;2.40;;;4.00;91.90;;;;;;5056739;28;20813;-78
2021/12/27 02:21:47;;;;;;;4.27;2.50;;;4.00;91.50;;;;;;5056086;28;20202;-77
2021/12/27 02:24:15;;;;;;;4.97;2.60;;;4.10;91.60;;;;;;5063177;28;20240;-78
2021/12/27 02:26:44;;;;;;;3.87;2.23;;;4.00;91.50;;;;;;5045000;28;20217;-78
2021/12/27 02:29:13;;;;;;;5.00;2.63;;;4.00;91.60;;;;;;5058948;28;20187;-78
2021/12/27 02:31:41;;;;;;;4.10;2.47;;;4.00;91.60;;;;;;5051295;28;20201;-78
2021/12/27 02:34:10;;;;;;;3.60;2.57;;;4.00;91.60;;;;;;5054889;28;20209;-77
2021/12/27 02:36:39;;;;;;;3.80;2.27;;;4.00;91.50;;;;;;5056631;28;20202;-77
2021/12/27 02:39:08;;;;;;;3.37;1.93;;;3.90;91.50;;;;;;5050271;28;20207;-77
2021/12/27 02:41:37;;;;;;;4.00;2.67;;;3.90;91.60;;;;;;5058993;28;20198;-77
2021/12/27 02:44:06;;;;;;;3.67;2.40;;;4.00;91.60;;;;;;5046260;28;20199;-79
2021/12/27 02:46:34;;;;;;;3.63;2.30;;;4.00;91.60;;;;;;5058958;28;20914;-78
2021/12/27 02:49:04;;;;;;;6.13;2.67;;;3.90;91.50;;;;;;5049042;28;20187;-78
2021/12/27 02:51:33;;;;;;;4.30;2.23;;;3.90;91.60;;;;;;5049451;28;20186;-77
2021/12/27 02:54:01;;;;;;;4.33;2.00;;;3.90;91.60;;;;;;5052957;28;20197;-78
2021/12/27 02:56:33;;;;;;;3.90;2.43;;;3.90;91.60;;;;;;5055506;28;20202;-76
2021/12/27 02:59:01;;;;;;;3.23;2.03;;;3.80;91.60;;;;;;5056208;28;20642;-79
2021/12/27 03:01:30;;;;;;;3.97;2.50;;;3.90;91.80;;;;;;5061850;28;20202;-78
2021/12/27 03:03:58;;;;;;;4.67;2.60;;;3.80;91.90;;;;;;5053163;28;20236;-77
2021/12/27 03:06:27;;;;;;;3.47;2.20;;;3.80;91.80;;;;;;5060647;28;20267;-78
2021/12/27 03:08:55;;;;;;;4.73;2.30;;;3.70;91.90;;;;;;5059775;28;20202;-77
2021/12/27 03:11:24;;;;;;;5.50;3.10;;;3.70;92.10;;;;;;5062057;28;20198;-77
2021/12/27 03:13:55;;;;;;;4.03;2.60;;;3.70;92.10;;;;;;5057901;28;20201;-78
2021/12/27 03:16:24;;;;;;;5.20;2.53;;;3.70;92.10;;;;;;5057689;28;20195;-78
2021/12/27 03:18:54;;;;;;;4.33;2.57;;;3.80;92.10;;;;;;5057033;28;20199;-78
2021/12/27 03:21:25;;;;;;;3.97;2.53;;;3.90;92.00;;;;;;5050910;28;20191;-78
2021/12/27 03:23:54;;;;;;;4.40;2.60;;;3.90;92.00;;;;;;5043833;28;20191;-78
2021/12/27 03:26:23;;;;;;;5.03;2.50;;;3.80;92.00;;;;;;5057329;28;20229;-77
2021/12/27 03:28:54;;;;;;;3.63;2.40;;;3.90;92.00;;;;;;5059185;28;20753;-77
2021/12/27 03:31:22;;;;;;;5.20;3.07;;;3.90;92.00;;;;;;5054376;28;20199;-77
2021/12/27 03:33:51;;;;;;;4.63;2.23;;;3.90;92.00;;;;;;5058623;28;20190;-77
2021/12/27 03:36:23;;;;;;;4.90;2.30;;;3.90;92.10;;;;;;5060955;28;20835;-80
2021/12/27 03:38:52;;;;;;;4.60;2.80;;;3.90;92.10;;;;;;5062827;28;20195;-78
2021/12/27 03:41:24;;;;;;;4.67;3.07;;;3.90;92.00;;;;;;5063934;28;20807;-77
2021/12/27 03:43:53;;;;;;;4.27;2.50;;;3.90;92.10;;;;;;5062934;28;20346;-79
2021/12/27 03:46:22;;;;;;;3.37;2.37;;;3.90;92.10;;;;;;5052539;28;20914;-78
2021/12/27 03:48:51;;;;;;;7.13;3.30;;;3.90;92.10;;;;;;5066425;28;20229;-80
2021/12/27 03:51:19;;;;;;;5.37;3.07;;;3.90;92.20;;;;;;5064141;28;20196;-79
2021/12/27 03:53:47;;;;;;;5.10;3.20;;;3.80;92.30;;;;;;5060787;28;20197;-79
2021/12/27 03:56:16;;;;;;;4.63;2.67;;;3.80;92.40;;;;;;5054044;28;20623;-78
2021/12/27 03:58:54;;;;;;;5.80;3.20;;;3.80;92.30;;;;;;5057315;28;20886;-78
2021/12/27 04:01:24;;;;;;;4.73;3.03;;;3.80;92.30;;;;;;5053395;28;20204;-80
2021/12/27 04:03:55;;;;;;;7.30;3.93;;;3.80;92.40;;;;;;5054878;28;20292;-78
2021/12/27 04:06:26;;;;;;;7.20;3.10;;;3.80;92.40;;;;;;5062429;28;20206;-78
2021/12/27 04:08:54;;;;;;;4.97;3.17;;;3.90;92.30;;;;;;5064161;28;20285;-79
2021/12/27 04:11:23;;;;;;;5.23;2.87;;;3.90;92.40;;;;;;5062500;28;20190;-79
2021/12/27 04:13:51;;;;;;;5.07;3.17;;;3.80;92.40;;;;;;5065738;28;20195;-79
2021/12/27 04:16:19;;;;;;;4.60;3.00;;;3.80;92.40;;;;;;5058137;28;20203;-78
2021/12/27 04:18:49;;;;;;;7.80;3.13;;;3.70;92.50;;;;;;5064530;28;20197;-77
2021/12/27 04:21:18;;;;;;;4.60;2.90;;;3.70;92.50;;;;;;5054715;28;20197;-77
2021/12/27 04:23:46;;;;;;;5.27;3.17;;;3.70;92.60;;;;;;5056685;28;20197;-79
2021/12/27 04:26:15;;;;;;;5.80;3.23;;;3.70;92.70;;;;;;5062080;28;20217;-79
2021/12/27 04:28:43;;;;;;;6.97;3.33;;;3.70;92.70;;;;;;5054325;28;20199;-78
2021/12/27 04:31:14;;;;;;;6.33;3.73;;;3.80;92.60;;;;;;5056922;28;20197;-78
2021/12/27 04:33:43;;;;;;;6.20;3.07;;;3.80;92.60;;;;;;5063425;28;20198;-78
2021/12/27 04:36:13;;;;;;;6.40;3.37;;;3.70;92.60;;;;;;5050286;28;20194;-77
2021/12/27 04:38:42;;;;;;;3.87;2.70;;;3.70;92.70;;;;;;5046162;28;20198;-78
2021/12/27 04:41:15;;;;;;;6.17;2.87;;;3.70;92.80;;;;;;5063728;28;20655;-78
2021/12/27 04:43:43;;;;;;;9.00;3.37;;;3.70;92.80;;;;;;5058482;28;20190;-80
2021/12/27 04:46:12;;;;;;;5.87;3.47;;;3.70;92.80;;;;;;5055806;28;20308;-77
2021/12/27 04:48:41;;;;;;;5.33;3.40;;;3.80;92.90;;;;;;5063064;28;20194;-79
2021/12/27 04:51:09;;;;;;;6.80;4.03;;;3.70;92.90;;;;;;5059972;28;20198;-79
2021/12/27 04:53:39;;;;;;;6.53;3.43;;;3.80;92.90;;;;;;5057852;28;20194;-78
2021/12/27 04:56:07;;;;;;;7.50;4.23;;;3.70;92.90;;;;;;5063262;28;20206;-79
2021/12/27 04:58:36;;;;;;;9.37;4.27;;;3.80;92.90;;;;;;5054063;28;20208;-79
2021/12/27 05:01:04;;;;;;;7.67;3.93;;;3.80;92.90;;;;;;5060184;28;20264;-77
2021/12/27 05:03:33;;;;;;;9.47;3.73;;;3.80;92.90;;;;;;5060439;28;20222;-79
2021/12/27 05:06:01;;;;;;;7.33;3.80;;;3.80;93.00;;;;;;5060047;28;20229;-78
2021/12/27 05:08:29;;;;;;;7.53;4.10;;;3.80;93.00;;;;;;5064429;28;20197;-80
2021/12/27 05:10:59;;;;;;;7.67;4.17;;;3.70;93.00;;;;;;5059557;28;20260;-78
2021/12/27 05:13:31;;;;;;;6.73;4.00;;;3.70;93.10;;;;;;5062232;28;20210;-79
2021/12/27 05:16:00;;;;;;;7.10;4.33;;;3.80;93.20;;;;;;5061524;28;20919;-79
2021/12/27 05:18:29;;;;;;;10.77;4.23;;;3.80;93.10;;;;;;5058671;28;20190;-79
2021/12/27 05:20:58;;;;;;;7.80;4.30;;;3.70;93.10;;;;;;5063032;28;20623;-78
2021/12/27 05:23:26;;;;;;;9.93;4.40;;;3.70;93.10;;;;;;5046232;28;20199;-78
2021/12/27 05:25:55;;;;;;;9.93;3.93;;;3.80;93.10;;;;;;5056788;28;20260;-77
2021/12/27 05:28:24;;;;;;;7.60;4.30;;;3.80;93.10;;;;;;5064473;28;20192;-79
2021/12/27 05:30:53;;;;;;;8.90;4.93;;;3.80;93.20;;;;;;5054461;28;20194;-78
2021/12/27 05:33:21;;;;;;;7.80;4.83;;;3.80;93.10;;;;;;5053103;28;20290;-78
2021/12/27 05:35:50;;;;;;;7.63;4.17;;;3.80;93.10;;;;;;5058022;28;20691;-78
2021/12/27 05:38:18;;;;;;;8.97;3.70;;;3.80;93.00;;;;;;5058676;28;20686;-78
2021/12/27 05:40:47;;;;;;;10.83;4.33;;;3.80;93.00;;;;;;5064313;28;20204;-78
2021/12/27 05:43:15;;;;;;;19.30;5.60;;;3.80;93.00;;;;;;5052223;28;20196;-78
2021/12/27 05:45:45;;;;;;;8.17;4.03;;;3.90;93.00;;;;;;5059035;28;20735;-79
2021/12/27 05:48:15;;;;;;;12.90;5.17;;;3.90;93.00;;;;;;5059253;28;20194;-79
2021/12/27 05:50:44;;;;;;;7.33;4.60;;;3.90;92.90;;;;;;5056840;28;20189;-78
2021/12/27 05:53:13;;;;;;;8.30;4.33;;;3.90;92.90;;;;;;5062184;28;20836;-78
2021/12/27 05:55:41;;;;;;;6.23;3.70;;;4.00;92.80;;;;;;5059859;28;20200;-79
2021/12/27 05:58:09;;;;;;;8.00;3.83;;;4.00;92.80;;;;;;5060631;28;20204;-78
2021/12/27 06:00:38;;;;;;;9.67;4.57;;;4.00;92.80;;;;;;5059066;28;20864;-78
2021/12/27 06:03:08;;;;;;;6.87;3.67;;;4.00;92.80;;;;;;5063629;28;20610;-78
2021/12/27 06:05:36;;;;;;;9.37;4.30;;;4.00;92.80;;;;;;5054773;28;20185;-79
2021/12/27 06:08:05;;;;;;;6.47;3.33;;;4.10;92.80;;;;;;5054211;28;20524;-77
2021/12/27 06:10:33;;;;;;;6.93;4.17;;;4.10;92.80;;;;;;5055333;28;20189;-78
2021/12/27 06:13:02;;;;;;;7.03;4.27;;;4.10;92.80;;;;;;5048091;28;20197;-78
2021/12/27 06:15:30;;;;;;;6.87;4.03;;;4.10;92.80;;;;;;5057358;28;20199;-78
2021/12/27 06:17:59;;;;;;;31.37;5.67;;;4.20;92.70;;;;;;5055335;28;20285;-78
2021/12/27 06:20:29;;;;;;;8.57;4.10;;;4.20;92.80;;;;;;5059234;28;20909;-78
2021/12/27 06:23:00;;;;;;;6.37;4.20;;;4.20;92.70;;;;;;5055362;28;20200;-78
2021/12/27 06:25:28;;;;;;;8.13;4.57;;;4.20;92.70;;;;;;5058499;28;20786;-76
2021/12/27 06:27:58;;;;;;;6.77;4.23;;;4.10;92.70;;;;;;5063261;28;20227;-77
2021/12/27 06:30:26;;;;;;;7.57;4.53;;;4.10;92.80;;;;;;5063999;28;20198;-78
2021/12/27 06:32:55;;;;;;;9.67;4.67;;;4.10;92.80;;;;;;5063666;28;20778;-77
2021/12/27 06:35:23;;;;;;;9.37;5.03;;;4.20;92.80;;;;;;5063964;28;20858;-79
2021/12/27 06:37:53;;;;;;;8.87;4.33;;;4.10;92.80;;;;;;5068426;28;20316;-78
2021/12/27 06:40:21;;;;;;;7.60;4.47;;;4.10;92.70;;;;;;5055677;28;20200;-78
2021/12/27 06:42:50;;;;;;;7.80;4.53;;;4.20;92.60;;;;;;5071436;28;20195;-78
2021/12/27 06:45:18;;;;;;;6.97;4.40;;;4.10;92.70;;;;;;5058738;28;20201;-78
2021/12/27 06:47:47;;;;;;;7.37;4.50;;;4.10;92.60;;;;;;5062767;28;20209;-78
2021/12/27 06:50:16;;;;;;;8.70;5.57;;;4.20;92.70;;;;;;5058680;28;20194;-78
2021/12/27 06:52:45;;;;;;;8.93;5.20;;;4.10;92.60;;;;;;5057161;28;20197;-78
2021/12/27 06:55:15;;;;;;;8.10;4.73;;;4.20;92.70;;;;;;5060397;28;20221;-78
2021/12/27 06:57:43;;;;;;;8.57;5.20;;;4.20;92.60;;;;;;5050024;28;20201;-78
2021/12/27 07:00:14;;;;;;;8.57;5.00;;;4.20;92.70;;;;;;5049333;28;20827;-79
2021/12/27 07:02:43;;;;;;;9.07;5.27;;;4.30;92.70;;;;;;5056196;28;20298;-79
2021/12/27 07:05:13;;;;;;;7.00;4.67;;;4.30;92.60;;;;;;5055604;28;20225;-78
2021/12/27 07:07:42;;;;;;;10.73;5.20;;;4.30;92.60;;;;;;5065787;28;20642;-78
2021/12/27 07:10:13;;;;;;;8.20;4.93;;;4.30;92.60;;;;;;5060448;28;20204;-78
2021/12/27 07:12:43;;;;;;;7.17;4.13;;;4.30;92.60;;;;;;5062643;28;20193;-79
2021/12/27 07:15:11;;;;;;;9.23;5.40;;;4.40;92.60;;;;;;5059908;28;21012;-78
2021/12/27 07:17:40;;;;;;;10.38;5.82;;;4.40;92.50;;;;;;5055416;28;20428;-79
2021/12/27 07:20:10;;;;;;;9.13;5.53;;;4.40;92.60;;;;;;5058990;28;20198;-79
2021/12/27 07:22:39;;;;;;;10.37;5.23;;;4.40;92.60;;;;;;5062826;28;20830;-79
2021/12/27 07:25:08;;;;;;;9.37;4.67;;;4.40;92.60;;;;;;5059183;28;20194;-79
2021/12/27 07:27:44;;;;;;;6.87;4.80;;;4.40;92.60;;;;;;5058314;28;20205;-78
2021/12/27 07:30:14;;;;;;;18.37;5.63;;;4.50;92.60;;;;;;5062638;28;20186;-79
2021/12/27 07:32:42;;;;;;;7.90;5.10;;;4.50;92.50;;;;;;5063030;28;20273;-79
2021/12/27 07:35:13;;;;;;;7.73;4.57;;;4.60;92.50;;;;;;5062204;28;20178;-80
2021/12/27 07:37:42;;;;;;;11.97;5.63;;;4.60;92.50;;;;;;5062931;28;20188;-80
2021/12/27 07:40:12;;;;;;;8.10;4.70;;;4.60;92.50;;;;;;5072171;28;20190;-80
2021/12/27 07:42:41;;;;;;;9.30;4.63;;;4.60;92.40;;;;;;5076766;28;20188;-80
2021/12/27 07:45:11;;;;;;;8.87;4.90;;;4.60;92.10;;;;;;5051683;28;20199;-79
2021/12/27 07:47:40;;;;;;;6.87;4.17;;;4.60;92.20;;;;;;5059190;28;20220;-84
2021/12/27 07:50:10;;;;;;;6.10;4.17;;;4.60;92.20;;;;;;5052249;28;20212;-80
2021/12/27 07:52:38;;;;;;;9.00;4.87;;;4.50;92.20;;;;;;5061483;28;20194;-80
2021/12/27 07:55:07;;;;;;;7.57;4.40;;;4.50;92.20;;;;;;5054238;28;20190;-81
2021/12/27 07:57:37;;;;;;;8.47;4.63;;;4.50;92.30;;;;;;5051444;28;20195;-79
2021/12/27 08:00:07;;;;;;;11.10;6.53;;;4.40;92.30;;;;;;5050112;28;20199;-80
2021/12/27 08:02:38;;;;;;;9.27;5.40;;;4.50;92.40;;;;;;5044311;28;20195;-80
2021/12/27 08:05:07;;;;;;;9.93;5.77;;;4.50;92.40;;;;;;5058198;28;20217;-80
2021/12/27 08:07:35;;;;;;;9.53;5.43;;;4.50;92.40;;;;;;5057368;28;20222;-80
2021/12/27 08:10:05;;;;;;;9.60;6.17;;;4.50;92.40;;;;;;5052554;28;20194;-80
2021/12/27 08:12:34;;;;;;;8.90;5.87;;;4.50;92.40;;;;;;5061302;28;20199;-80
2021/12/27 08:15:02;;;;;;;9.93;5.50;;;4.60;92.40;;;;;;5056572;28;20276;-80
2021/12/27 08:17:31;;;;;;;10.40;6.00;;;4.50;92.30;;;;;;5058624;28;20201;-79
2021/12/27 08:20:01;;;;;;;20.70;5.83;;;4.60;92.30;;;;;;5063630;28;20197;-79
2021/12/27 08:22:29;;;;;;;9.73;5.50;;;4.60;92.30;;;;;;5060366;28;20197;-78
2021/12/27 08:24:57;;;;;;;11.87;5.93;;;4.60;92.20;;;;;;5065291;28;20678;-80
2021/12/27 08:27:29;;;;;;;10.83;6.03;;;4.60;92.20;;;;;;5055698;28;20729;-79
2021/12/27 08:30:00;;;;;;;9.83;6.33;;;4.60;92.10;;;;;;5052471;28;20714;-81
2021/12/27 08:32:28;;;;;;;9.07;6.13;;;4.60;92.10;;;;;;5058188;28;20190;-79
2021/12/27 08:34:56;;;;;;;9.80;6.50;;;4.60;92.10;;;;;;5058017;28;20199;-78
2021/12/27 08:37:26;;;;;;;8.47;5.30;;;4.60;92.10;;;;;;5063760;28;20957;-79
2021/12/27 08:39:54;;;;;;;8.30;5.13;;;4.50;92.10;;;;;;5068195;28;20282;-79
2021/12/27 08:42:28;;;;;;;13.23;6.72;;;4.50;92.10;;;;;;5064919;28;20485;-79
2021/12/27 08:44:57;;;;;;;10.73;6.13;;;4.50;92.30;;;;;;5080422;28;20196;-79
2021/12/27 08:47:25;;;;;;;12.80;6.40;;;4.60;92.20;;;;;;5058732;28;20194;-80
2021/12/27 08:49:55;;;;;;;8.50;5.10;;;4.60;92.20;;;;;;5061671;28;20607;-80
2021/12/27 08:52:33;;;;;;;8.10;4.83;;;4.50;92.60;;;;;;5066390;28;20542;-80
2021/12/27 08:55:03;;;;;;;10.20;6.47;;;4.60;92.20;;;;;;5065231;28;20545;-80
2021/12/27 08:57:33;;;;;;;11.83;5.77;;;4.60;92.20;;;;;;5055258;28;20195;-80
2021/12/27 09:00:02;;;;;;;8.80;5.37;;;4.60;92.20;;;;;;5051490;28;20191;-79
2021/12/27 09:02:30;;;;;;;10.47;5.30;;;4.60;92.10;;;;;;5043422;28;20198;-82
2021/12/27 09:04:59;;;;;;;8.67;5.63;;;4.70;92.10;;;;;;5051153;28;20233;-81
2021/12/27 09:07:27;;;;;;;8.97;5.73;;;4.60;91.90;;;;;;5060116;28;20193;-78
2021/12/27 09:09:57;;;;;;;9.13;5.17;;;4.60;92.00;;;;;;5068791;28;20215;-80
2021/12/27 09:12:26;;;;;;;14.03;5.20;;;4.60;92.00;;;;;;5066597;28;20221;-78
2021/12/27 09:14:54;;;;;;;9.73;5.73;;;4.60;91.90;;;;;;5064192;28;20208;-79
2021/12/27 09:17:22;;;;;;;9.77;5.87;;;4.60;92.00;;;;;;5074482;28;20198;-79
2021/12/27 09:19:51;;;;;;;9.97;5.60;;;4.60;91.90;;;;;;5075358;28;20199;-80
2021/12/27 09:22:19;;;;;;;11.00;6.23;;;4.60;92.00;;;;;;5057418;28;20210;-79
2021/12/27 09:24:48;;;;;;;9.77;5.90;;;4.60;92.00;;;;;;5050802;28;20565;-80
2021/12/27 09:27:18;;;;;;;10.37;6.30;;;4.60;92.00;;;;;;5058569;28;20202;-79
2021/12/27 09:29:46;;;;;;;11.27;6.33;;;4.60;92.00;;;;;;5051344;28;20576;-79
2021/12/27 09:32:15;;;;;;;9.87;5.40;;;4.50;92.00;;;;;;5059032;28;20870;-77
2021/12/27 09:34:44;;;;;;;8.10;5.40;;;4.50;92.00;;;;;;5058256;28;20205;-78
2021/12/27 09:37:12;;;;;;;10.23;5.73;;;4.50;92.00;;;;;;5051455;28;20195;-80
2021/12/27 09:39:40;;;;;;;7.67;5.10;;;4.50;92.00;;;;;;5056488;28;20201;-79
2021/12/27 09:42:09;;;;;;;8.87;5.83;;;4.40;92.00;;;;;;5058259;28;20201;-79
2021/12/27 09:44:38;;;;;;;10.27;5.73;;;4.40;92.10;;;;;;5055570;28;20197;-78
2021/12/27 09:47:07;;;;;;;10.47;5.53;;;4.40;92.20;;;;;;5058820;28;20193;-80
2021/12/27 09:49:35;;;;;;;9.83;5.60;;;4.40;92.20;;;;;;5062116;28;20287;-79
2021/12/27 09:52:04;;;;;;;7.33;4.80;;;4.40;92.50;;;;;;5045771;28;20198;-80
2021/12/27 09:54:33;;;;;;;7.77;4.77;;;4.30;92.10;;;;;;5056763;28;20773;-79
2021/12/27 09:57:01;;;;;;;10.80;5.20;;;4.30;92.40;;;;;;5052899;28;20201;-78
2021/12/27 09:59:30;;;;;;;8.03;5.20;;;4.40;92.50;;;;;;5055643;28;20683;-78
2021/12/27 10:02:00;;;;;;;9.27;4.83;;;4.40;92.30;;;;;;5045730;28;20207;-78
2021/12/27 10:04:29;;;;;;;10.40;5.43;;;4.40;92.20;;;;;;5053232;28;20694;-79
2021/12/27 10:06:57;;;;;;;7.67;4.97;;;4.50;92.20;;;;;;5055173;28;20228;-78
2021/12/27 10:09:25;;;;;;;8.27;5.03;;;4.50;92.20;;;;;;5062973;28;20732;-79
2021/12/27 10:11:54;;;;;;;12.10;5.60;;;4.50;92.40;;;;;;5057410;28;21022;-77
2021/12/27 10:14:24;;;;;;;8.03;5.17;;;4.50;92.30;;;;;;5055338;28;20588;-77
2021/12/27 10:16:55;;;;;;;9.80;4.53;;;4.40;92.10;;;;;;5063883;28;20276;-78
2021/12/27 10:19:25;;;;;;;9.10;4.60;;;4.40;92.10;;;;;;5056427;28;20197;-79
2021/12/27 10:21:54;;;;;;;8.47;4.77;;;4.40;92.00;;;;;;5061100;28;20201;-78
2021/12/27 10:24:30;;;;;;;8.13;5.07;;;4.40;92.00;;;;;;5063843;28;20716;-78
2021/12/27 10:27:01;;;;;;;9.70;5.27;;;4.40;92.00;;;;;;5049578;28;20565;-79
2021/12/27 10:29:31;;;;;;;7.40;4.83;;;4.40;92.10;;;;;;5058857;28;20198;-78
2021/12/27 10:32:04;;;;;;;9.03;4.97;;;4.30;92.20;;;;;;5061267;28;20548;-78
2021/12/27 10:34:36;;;;;;;9.67;5.43;;;4.30;92.20;;;;;;5062829;28;20191;-79
2021/12/27 10:37:19;;;;;;;10.40;5.13;;;4.30;92.30;;;;;;5063670;28;20205;-80
2021/12/27 10:39:56;;;;;;;8.47;5.07;;;4.30;92.30;;;;;;5063372;28;20193;-80
2021/12/27 10:42:28;;;;;;;8.53;5.37;;;4.30;92.40;;;;;;5062695;28;20192;-78
2021/12/27 10:44:59;;;;;;;7.80;4.77;;;4.20;92.50;;;;;;5060732;28;20182;-80
2021/12/27 10:47:34;;;;;;;7.73;4.40;;;4.30;92.50;;;;;;5062120;28;20193;-79
2021/12/27 10:50:07;;;;;;;6.00;4.13;;;4.30;92.40;;;;;;5056858;28;20205;-78
2021/12/27 10:52:45;;;;;;;8.47;4.20;;;4.30;92.50;;;;;;5046796;28;20627;-79
2021/12/27 10:55:14;;;;;;;6.70;4.53;;;4.30;92.40;;;;;;5061580;28;20208;-78
2021/12/27 10:57:43;;;;;;;7.53;4.60;;;4.30;92.40;;;;;;5061905;28;20195;-79
2021/12/27 11:00:25;;;;;;;7.10;4.43;;;4.30;92.50;;;;;;5062572;28;20616;-78
2021/12/27 11:02:55;;;;;;;8.43;4.97;;;4.30;92.50;;;;;;5041278;28;20293;-79
2021/12/27 11:05:27;;;;;;;8.93;4.90;;;4.30;92.40;;;;;;5040835;28;20211;-78
2021/12/27 11:08:00;;;;;;;8.63;4.67;;;4.30;92.50;;;;;;5051631;28;20204;-78
2021/12/27 11:10:31;;;;;;;7.00;4.30;;;4.30;92.40;;;;;;5061354;28;20213;-78
2021/12/27 11:13:00;;;;;;;7.27;4.77;;;4.40;92.50;;;;;;5058611;28;20187;-78
2021/12/27 11:15:29;;;;;;;6.97;4.00;;;4.30;92.50;;;;;;5054205;28;20195;-77
2021/12/27 11:17:58;;;;;;;8.27;4.93;;;4.40;92.50;;;;;;5057577;28;20718;-77
2021/12/27 11:20:28;;;;;;;6.73;4.17;;;4.30;92.50;;;;;;5074752;28;20807;-77
2021/12/27 11:23:00;;;;;;;6.13;4.13;;;4.30;92.50;;;;;;5077660;28;20221;-77
2021/12/27 11:25:32;;;;;;;8.83;4.33;;;4.30;92.50;;;;;;5062740;28;20182;-77
2021/12/27 11:28:01;;;;;;;5.77;3.83;;;4.40;92.50;;;;;;5061398;28;20189;-76
2021/12/27 11:30:32;;;;;;;7.57;4.57;;;4.40;92.40;;;;;;5056948;28;20222;-76
2021/12/27 11:33:13;;;;;;;7.72;5.20;;;4.40;92.50;;;;;;5055992;28;20437;-75
2021/12/27 11:36:07;;;;;;;7.20;4.23;;;4.40;92.80;;;;;;5048215;28;20189;-75
2021/12/27 11:38:37;;;;;;;6.63;4.50;;;4.50;92.70;;;;;;5061251;28;20190;-79
2021/12/27 11:41:07;;;;;;;9.23;4.60;;;4.50;92.60;;;;;;5061119;28;20213;-77
2021/12/27 11:43:50;;;;;;;8.90;5.20;;;4.50;92.50;;;;;;5064151;28;20187;-79
2021/12/27 11:46:18;;;;;;;6.90;4.53;;;4.60;92.50;;;;;;5063468;28;20186;-78
2021/12/27 11:48:49;;;;;;;8.03;5.10;;;4.60;92.40;;;;;;5061443;28;20886;-78
2021/12/27 11:51:29;;;;;;;10.30;4.80;;;4.60;92.30;;;;;;5054509;28;20205;-77
2021/12/27 11:54:02;;;;;;;8.70;4.90;;;4.70;92.20;;;;;;5060476;28;20186;-77
2021/12/27 11:56:48;;;;;;;8.03;4.70;;;4.60;92.10;;;;;;5062933;28;20652;-77
2021/12/27 11:59:36;;;;;;;7.13;4.50;;;4.70;92.10;;;;;;5064903;28;20200;-77
2021/12/27 12:02:29;;;;;;;11.53;4.90;;;4.70;92.20;;;;;;5049656;28;20538;-77
2021/12/27 12:04:59;;;;;;;7.63;4.47;;;4.70;92.20;;;;;;5060657;28;20253;-77
2021/12/27 12:07:52;;;;;;;10.60;4.73;;;4.70;92.10;;;;;;5055145;28;20191;-78
2021/12/27 12:10:21;;;;;;;7.77;4.80;;;4.70;92.10;;;;;;5053662;28;20207;-77
2021/12/27 12:13:21;;;;;;;7.80;3.37;;;4.70;92.50;;;;;;5056526;28;20194;-77
2021/12/27 12:16:03;;;;;;;7.97;4.10;;;4.70;92.10;;;;;;5059707;28;20190;-76
2021/12/27 12:18:33;;;;;;;7.97;4.10;;;4.70;91.90;;;;;;5046105;28;20202;-78
2021/12/27 12:21:02;;;;;;;8.67;3.97;;;4.70;91.90;;;;;;5057667;28;20814;-77
2021/12/27 12:23:59;;;;;;;5.93;3.10;;;4.70;91.80;;;;;;5058212;28;20187;-77
2021/12/27 12:26:28;;;;;;;7.37;3.80;;;4.70;91.90;;;;;;5065526;28;20175;-77
2021/12/27 12:29:01;;;;;;;7.40;3.97;;;4.70;91.90;;;;;;5061138;28;20194;-77
2021/12/27 12:31:31;;;;;;;6.93;3.77;;;4.80;91.90;;;;;;5063655;28;20599;-78
2021/12/27 12:34:11;;;;;;;6.83;3.53;;;4.80;91.80;;;;;;5065558;28;20191;-79
2021/12/27 12:36:47;;;;;;;7.87;4.10;;;4.80;91.80;;;;;;5063233;28;20209;-77
2021/12/27 12:39:17;;;;;;;6.70;3.73;;;4.80;91.80;;;;;;5061809;28;20291;-77
2021/12/27 12:41:46;;;;;;;6.43;3.57;;;4.80;91.70;;;;;;5065199;28;20205;-77
2021/12/27 12:44:17;;;;;;;7.10;3.97;;;4.80;91.70;;;;;;5056802;28;20688;-77
2021/12/27 12:46:50;;;;;;;8.27;3.80;;;4.80;91.80;;;;;;5060643;28;20190;-77
2021/12/27 12:49:22;;;;;;;6.27;4.40;;;4.80;92.10;;;;;;5051826;28;20649;-77
2021/12/27 12:51:52;;;;;;;7.40;4.60;;;4.80;91.80;;;;;;5054915;28;20179;-77
2021/12/27 12:54:28;;;;;;;5.83;4.00;;;4.70;91.80;;;;;;5062226;28;20179;-77
2021/12/27 12:56:59;;;;;;;8.07;4.50;;;4.70;91.80;;;;;;5065329;28;20185;-77
2021/12/27 12:59:29;;;;;;;6.83;4.27;;;4.70;91.80;;;;;;5061219;28;20209;-76
2021/12/27 13:02:01;;;;;;;9.10;4.50;;;4.70;91.90;;;;;;5065354;28;20204;-76
2021/12/27 13:04:44;;;;;;;6.83;4.50;;;4.70;91.90;;;;;;5064331;28;20925;-76
2021/12/27 13:07:13;;;;;;;6.27;4.43;;;4.60;92.00;;;;;;5064436;28;22075;-77
2021/12/27 13:09:46;;;;;;;6.70;4.30;;;4.60;92.00;;;;;;5073619;28;20186;-75
2021/12/27 13:12:21;;;;;;;8.70;3.90;;;4.60;92.10;;;;;;5059043;28;20182;-76